Time;durP1;ratioP1;P1;durP2;ratioP2;P2;SDS_P1;SDS_P2;PMS_P1;PMS_P2;Temp;Humidity;BMP_temperature;BMP_pressure;BME280_temperature;BME280_humidity;BME280_pressure;Samples;Min_cycle;Max_cycle;Signal;HPM_P1;HPM_P2
2023/12/07 00:02:25;;;;;;;18.15;8.90;;;;;;;-146.27;86.80;34343.09;5096786;28;20069;-68
2023/12/07 00:04:50;;;;;;;17.25;8.48;;;;;;;-146.27;86.71;34335.16;5090219;28;20517;-67
2023/12/07 00:07:15;;;;;;;13.93;8.93;;;;;;;-146.27;86.66;34368.91;5101159;28;20022;-67
2023/12/07 00:09:41;;;;;;;16.38;9.43;;;;;;;-146.27;86.80;34362.94;5092311;28;20028;-67
2023/12/07 00:12:06;;;;;;;13.95;8.63;;;;;;;-146.27;86.49;34358.97;5091755;28;20028;-68
2023/12/07 00:14:32;;;;;;;20.00;8.80;;;;;;;-146.27;86.42;34358.97;5099753;28;20140;-67
2023/12/07 00:16:57;;;;;;;18.30;8.68;;;;;;;-146.27;86.14;34422.47;5094765;28;20065;-67
2023/12/07 00:19:22;;;;;;;12.43;7.32;;;;;;;-146.27;86.25;34386.75;5097438;28;20109;-69
2023/12/07 00:21:48;;;;;;;16.42;8.35;;;;;;;-146.27;86.45;34382.78;5097172;28;20023;-67
2023/12/07 00:24:13;;;;;;;14.85;8.27;;;;;;;-146.27;86.76;34418.50;5098263;28;20028;-67
2023/12/07 00:26:39;;;;;;;15.55;8.80;;;;;;;-146.27;86.69;34398.66;5098160;28;20023;-67
2023/12/07 00:29:04;;;;;;;19.80;8.95;;;;;;;-146.27;87.20;34390.72;5107927;28;20083;-67
2023/12/07 00:31:30;;;;;;;16.02;8.25;;;;;;;-146.27;87.13;34414.53;5087687;28;20411;-67
2023/12/07 00:33:55;;;;;;;18.88;9.63;;;;;;;-146.27;87.19;34410.56;5089428;28;20024;-68
2023/12/07 00:36:21;;;;;;;13.45;8.40;;;;;;;-146.27;86.92;34414.53;5074865;28;20016;-68
2023/12/07 00:38:46;;;;;;;16.30;8.30;;;;;;;-146.27;86.97;34390.72;5094685;28;20184;-68
2023/12/07 00:41:12;;;;;;;16.85;8.48;;;;;;;-146.27;86.98;34428.44;5096617;28;20449;-68
2023/12/07 00:43:37;;;;;;;14.18;9.05;;;;;;;-146.27;86.97;34418.50;5104109;28;20032;-68
2023/12/07 00:46:03;;;;;;;14.13;8.55;;;;;;;-146.27;86.26;34434.38;5098106;28;20080;-67
2023/12/07 00:48:28;;;;;;;10.73;6.50;;;;;;;-146.27;86.26;34440.34;5108200;28;20038;-68
2023/12/07 00:50:53;;;;;;;16.85;8.15;;;;;;;-146.27;86.11;34418.50;5104820;28;20080;-70
2023/12/07 00:53:19;;;;;;;14.35;8.23;;;;;;;-146.27;86.64;34487.97;5096739;28;20556;-68
2023/12/07 00:55:44;;;;;;;16.33;7.63;;;;;;;-146.27;86.42;34450.25;5096369;28;20429;-69
2023/12/07 00:58:10;;;;;;;17.00;7.78;;;;;;;-146.27;86.72;34454.22;5101723;27;20027;-68
2023/12/07 01:00:36;;;;;;;14.95;8.10;;;;;;;-146.27;87.21;34416.53;5099524;28;20346;-68
2023/12/07 01:03:02;;;;;;;16.15;8.02;;;;;;;-146.27;87.12;34460.19;5103181;28;20031;-67
2023/12/07 01:05:27;;;;;;;13.95;8.45;;;;;;;-146.27;87.26;34466.16;5110353;28;20035;-68
2023/12/07 01:07:52;;;;;;;14.70;8.15;;;;;;;-146.27;87.14;34470.13;5096298;28;20053;-67
2023/12/07 01:10:18;;;;;;;14.65;7.20;;;;;;;-146.27;87.42;34438.34;5093697;28;20058;-67
2023/12/07 01:12:43;;;;;;;11.70;7.15;;;;;;;-146.27;87.26;34442.31;5109316;28;20027;-68
2023/12/07 01:15:08;;;;;;;13.38;7.70;;;;;;;-146.27;86.90;34448.28;5098274;28;21381;-67
2023/12/07 01:17:34;;;;;;;15.57;8.30;;;;;;;-146.27;87.39;34466.16;5098432;28;20093;-67
2023/12/07 01:19:59;;;;;;;12.73;7.95;;;;;;;-146.27;86.78;34454.22;5098178;28;20036;-69
2023/12/07 01:22:25;;;;;;;16.45;8.40;;;;;;;-146.27;87.45;34454.22;5097067;28;20368;-71
2023/12/07 01:24:50;;;;;;;12.82;7.60;;;;;;;-146.27;87.03;34482.03;5095869;28;20020;-67
2023/12/07 01:27:18;;;;;;;15.90;7.95;;;;;;;-146.27;86.93;34458.22;5096011;28;20093;-67
2023/12/07 01:29:43;;;;;;;16.92;8.35;;;;;;;-146.27;87.24;34482.03;5097031;28;20044;-69
2023/12/07 01:32:08;;;;;;;16.35;8.10;;;;;;;-146.27;86.97;34470.13;5096028;28;20036;-67
2023/12/07 01:34:34;;;;;;;16.98;8.38;;;;;;;-146.27;86.95;34430.41;5104135;28;20031;-67
2023/12/07 01:37:00;;;;;;;12.30;7.47;;;;;;;-146.27;87.05;34446.28;5115049;28;20527;-68
2023/12/07 01:39:26;;;;;;;14.70;8.32;;;;;;;-146.27;86.94;34466.16;5101527;28;20115;-68
2023/12/07 01:41:51;;;;;;;16.02;7.88;;;;;;;-146.27;87.02;34434.38;5083878;28;20118;-68
2023/12/07 01:44:17;;;;;;;11.35;7.72;;;;;;;-146.27;86.83;34436.38;5100479;28;20035;-68
2023/12/07 01:46:42;;;;;;;20.25;8.63;;;;;;;-146.27;86.99;34444.31;5109594;28;20028;-68
2023/12/07 01:49:08;;;;;;;17.88;9.55;;;;;;;-146.27;87.10;34434.38;5100593;28;20495;-68
2023/12/07 01:51:34;;;;;;;15.38;8.95;;;;;;;-146.27;87.22;34450.25;5101797;28;20049;-68
2023/12/07 01:54:01;;;;;;;15.43;9.02;;;;;;;-146.27;87.29;34432.41;5091894;28;20032;-67
2023/12/07 01:56:26;;;;;;;17.88;8.65;;;;;;;-146.27;87.16;34390.72;5095396;28;20035;-68
2023/12/07 01:58:52;;;;;;;15.77;8.23;;;;;;;-146.27;87.10;34394.69;5094462;28;20482;-68
2023/12/07 02:01:17;;;;;;;17.35;8.75;;;;;;;-146.27;87.26;34406.59;5104759;28;20020;-67
2023/12/07 02:03:43;;;;;;;17.23;8.27;;;;;;;-146.27;87.61;34390.72;5108156;28;20431;-68
2023/12/07 02:06:08;;;;;;;14.50;9.00;;;;;;;-146.27;87.49;34392.72;5094194;28;20077;-68
2023/12/07 02:08:35;;;;;;;19.33;9.57;;;;;;;-146.27;87.29;34414.53;5104063;28;20073;-67
2023/12/07 02:11:00;;;;;;;20.55;8.85;;;;;;;-146.27;87.10;34416.53;5105429;28;20076;-66
2023/12/07 02:13:26;;;;;;;17.63;9.00;;;;;;;-146.27;87.06;34418.50;5092512;28;20479;-69
2023/12/07 02:15:54;;;;;;;14.40;8.15;;;;;;;-146.27;87.34;34382.78;5094056;28;20024;-68
2023/12/07 02:18:34;;;;;;;19.67;9.45;;;;;;;-146.27;87.38;34394.69;5109426;28;20789;-68
2023/12/07 02:21:15;;;;;;;13.38;8.30;;;;;;;-146.27;87.29;34374.84;5102530;28;20023;-67
2023/12/07 02:23:42;;;;;;;18.98;9.13;;;;;;;-146.27;87.03;34382.78;5103056;28;20031;-67
2023/12/07 02:26:10;;;;;;;17.63;8.27;;;;;;;-146.27;87.05;34376.84;5108113;28;20027;-69
2023/12/07 02:28:35;;;;;;;16.70;9.00;;;;;;;-146.27;87.00;34347.06;5105295;28;20051;-67
2023/12/07 02:31:01;;;;;;;19.17;9.00;;;;;;;-146.27;87.34;34404.63;5092402;28;20077;-68
2023/12/07 02:33:26;;;;;;;18.23;9.02;;;;;;;-146.27;87.27;34376.84;5098893;28;20028;-68
2023/12/07 02:35:51;;;;;;;17.83;9.15;;;;;;;-146.27;87.29;34386.75;5112716;28;20012;-67
2023/12/07 02:38:18;;;;;;;16.05;8.90;;;;;;;-146.27;87.16;34327.22;5110289;28;20396;-67
2023/12/07 02:40:45;;;;;;;22.10;9.68;;;;;;;-146.27;87.38;34390.72;5109505;28;20027;-67
2023/12/07 02:43:12;;;;;;;16.85;9.65;;;;;;;-146.27;87.34;34398.66;5106821;28;20028;-66
2023/12/07 02:45:38;;;;;;;16.80;8.70;;;;;;;-146.27;87.32;34394.69;5106602;28;20107;-67
2023/12/07 02:48:04;;;;;;;18.55;8.68;;;;;;;-146.27;87.16;34390.72;5099286;28;20474;-69
2023/12/07 02:50:29;;;;;;;14.85;8.25;;;;;;;-146.27;87.39;34406.59;5100407;28;20481;-69
2023/12/07 02:52:56;;;;;;;19.60;9.27;;;;;;;-146.27;87.34;34428.44;5097500;28;20102;-69
2023/12/07 02:55:22;;;;;;;14.52;9.30;;;;;;;-146.27;87.27;34420.50;5099047;28;20021;-69
2023/12/07 02:57:47;;;;;;;17.63;9.88;;;;;;;-146.27;87.38;34412.56;5095204;28;20092;-69
2023/12/07 03:00:14;;;;;;;34.58;21.33;;;;;;;-146.27;87.31;34376.84;5107615;28;20682;-68
2023/12/07 03:02:40;;;;;;;18.63;10.38;;;;;;;-146.27;87.54;34404.63;5100999;28;20103;-66
2023/12/07 03:05:06;;;;;;;18.35;10.70;;;;;;;-146.27;87.18;34390.72;5099181;28;20023;-67
2023/12/07 03:07:35;;;;;;;21.92;9.43;;;;;;;-146.27;87.46;34438.34;5093604;28;20023;-67
2023/12/07 03:10:01;;;;;;;17.83;9.15;;;;;;;-146.27;87.47;34414.53;5090641;28;20036;-68
2023/12/07 03:12:26;;;;;;;18.58;9.27;;;;;;;-146.27;87.29;34418.50;5092001;28;20035;-69
2023/12/07 03:14:51;;;;;;;22.20;10.20;;;;;;;-146.27;87.90;34378.81;5093550;28;20028;-68
2023/12/07 03:17:17;;;;;;;24.83;10.18;;;;;;;-146.27;87.61;34347.06;5091266;28;20061;-68
2023/12/07 03:19:42;;;;;;;19.17;10.68;;;;;;;-146.27;87.60;34384.78;5098719;28;20032;-67
2023/12/07 03:22:08;;;;;;;19.15;9.88;;;;;;;-146.27;87.59;34355.00;5091348;28;20040;-68
2023/12/07 03:24:37;;;;;;;18.70;10.10;;;;;;;-146.27;87.86;34394.69;5092675;28;20032;-68
2023/12/07 03:27:04;;;;;;;19.98;10.98;;;;;;;-146.27;87.40;34370.88;5097945;28;20476;-68
2023/12/07 03:29:29;;;;;;;19.40;9.60;;;;;;;-146.27;87.63;34315.31;5109165;28;20388;-68
2023/12/07 03:31:54;;;;;;;20.88;10.32;;;;;;;-146.27;87.46;34357.00;5099428;28;20077;-68
2023/12/07 03:34:20;;;;;;;20.70;10.57;;;;;;;-146.27;87.29;34370.88;5091436;28;20038;-68
2023/12/07 03:36:46;;;;;;;16.00;9.68;;;;;;;-146.27;87.34;34362.94;5107156;28;20052;-69
2023/12/07 03:39:12;;;;;;;21.10;9.77;;;;;;;-146.27;87.27;34372.88;5072221;28;20073;-68
2023/12/07 03:41:38;;;;;;;16.30;9.45;;;;;;;-146.27;87.47;34366.91;5097971;28;20401;-69
2023/12/07 03:44:03;;;;;;;19.17;10.23;;;;;;;-146.27;87.29;34378.81;5097060;28;20043;-68
2023/12/07 03:46:29;;;;;;;20.75;10.20;;;;;;;-146.27;87.42;34386.75;5099225;28;20110;-68
2023/12/07 03:48:54;;;;;;;18.83;10.30;;;;;;;-146.27;87.38;34386.75;5090808;28;20368;-70
2023/12/07 03:51:19;;;;;;;20.55;11.18;;;;;;;-146.27;87.58;34347.06;5104429;28;20471;-68
2023/12/07 03:53:45;;;;;;;21.30;11.40;;;;;;;-146.27;87.26;34343.09;5095879;28;20131;-68
2023/12/07 03:56:10;;;;;;;22.08;9.60;;;;;;;-146.27;87.24;34347.06;5101060;28;20111;-68
2023/12/07 03:58:36;;;;;;;18.48;10.55;;;;;;;-146.27;87.43;34382.78;5098823;28;20112;-68
2023/12/07 04:01:01;;;;;;;17.00;10.10;;;;;;;-146.27;87.49;34382.78;5095259;28;20107;-68
2023/12/07 04:03:26;;;;;;;15.05;9.88;;;;;;;-146.27;87.22;34368.91;5106416;28;20081;-69
2023/12/07 04:05:52;;;;;;;18.95;9.90;;;;;;;-146.27;87.02;34390.72;5105146;28;20129;-68
2023/12/07 04:08:17;;;;;;;19.75;10.73;;;;;;;-146.27;87.35;34368.91;5105661;28;20467;-68
2023/12/07 04:10:42;;;;;;;19.05;10.23;;;;;;;-146.27;87.12;34362.94;5097847;28;20467;-68
2023/12/07 04:13:08;;;;;;;20.45;10.00;;;;;;;-146.27;87.13;34388.75;5100990;28;20031;-68
2023/12/07 04:15:33;;;;;;;20.23;12.10;;;;;;;-146.27;87.46;34398.66;5095131;28;20030;-70
2023/12/07 04:17:59;;;;;;;20.45;9.73;;;;;;;-146.27;87.54;34374.84;5091786;28;20020;-68
2023/12/07 04:20:24;;;;;;;22.15;11.27;;;;;;;-146.27;87.33;34398.66;5093111;28;20031;-67
2023/12/07 04:22:49;;;;;;;17.58;10.35;;;;;;;-146.27;87.23;34355.00;5093680;28;20032;-69
2023/12/07 04:25:15;;;;;;;17.65;10.48;;;;;;;-146.27;87.21;34357.00;5074070;28;20051;-68
2023/12/07 04:27:40;;;;;;;21.55;11.40;;;;;;;-146.27;87.35;34382.78;5105214;28;20027;-70
2023/12/07 04:30:06;;;;;;;17.88;10.88;;;;;;;-146.27;87.22;34390.72;5101723;28;20035;-68
2023/12/07 04:32:31;;;;;;;19.73;12.43;;;;;;;-146.27;87.33;34412.56;5098310;28;20115;-68
2023/12/07 04:34:57;;;;;;;25.08;12.65;;;;;;;-146.27;87.16;34364.94;5108722;28;20047;-70
2023/12/07 04:37:22;;;;;;;16.15;10.57;;;;;;;-146.27;87.29;34414.53;5108323;28;20019;-68
2023/12/07 04:39:47;;;;;;;20.20;12.05;;;;;;;-146.27;87.29;34406.59;5100260;28;20070;-67
2023/12/07 04:42:13;;;;;;;25.27;13.25;;;;;;;-146.27;87.21;34362.94;5105986;28;20020;-67
2023/12/07 04:44:38;;;;;;;22.63;12.45;;;;;;;-146.27;87.13;34440.34;5104204;28;20463;-67
2023/12/07 04:47:04;;;;;;;21.85;12.25;;;;;;;-146.27;87.08;34406.59;5088686;28;20483;-69
2023/12/07 04:49:29;;;;;;;23.65;13.52;;;;;;;-146.27;87.02;34384.78;5089686;28;20032;-68
2023/12/07 04:51:54;;;;;;;26.75;13.75;;;;;;;-146.27;87.24;34374.84;5089277;28;20430;-68
2023/12/07 04:54:20;;;;;;;27.25;14.57;;;;;;;-146.27;87.16;34420.50;5104982;28;20484;-67
2023/12/07 04:56:45;;;;;;;29.95;14.13;;;;;;;-146.27;87.08;34416.53;5091477;28;21860;-70
2023/12/07 04:59:11;;;;;;;27.05;15.30;;;;;;;-146.27;87.18;34418.50;5094229;28;20058;-67
2023/12/07 05:01:36;;;;;;;29.52;15.18;;;;;;;-146.27;87.35;34414.53;5105592;28;20361;-67
2023/12/07 05:04:03;;;;;;;28.67;15.45;;;;;;;-146.27;87.26;34426.44;5095718;28;20042;-69
2023/12/07 05:06:30;;;;;;;29.85;16.48;;;;;;;-146.27;87.29;34456.22;5092650;28;20024;-68
2023/12/07 05:08:55;;;;;;;32.13;17.00;;;;;;;-146.27;87.57;34416.53;5091480;28;20020;-68
2023/12/07 05:11:21;;;;;;;33.28;17.05;;;;;;;-146.27;87.34;34430.41;5094315;28;20035;-67
2023/12/07 05:13:47;;;;;;;29.85;15.73;;;;;;;-146.27;87.31;34410.56;5082155;28;20027;-68
2023/12/07 05:16:13;;;;;;;35.05;17.55;;;;;;;-146.27;87.39;34418.50;5077161;28;20059;-69
2023/12/07 05:18:39;;;;;;;32.75;17.10;;;;;;;-146.27;87.25;34418.50;5092693;28;20058;-68
2023/12/07 05:21:05;;;;;;;30.50;16.80;;;;;;;-146.27;87.33;34406.59;5092905;28;20043;-68
2023/12/07 05:23:30;;;;;;;43.45;19.23;;;;;;;-146.27;87.79;34448.28;5093999;28;20024;-69
2023/12/07 05:25:55;;;;;;;38.28;18.20;;;;;;;-146.27;87.70;34378.81;5097043;28;20024;-68
2023/12/07 05:28:21;;;;;;;34.03;19.15;;;;;;;-146.27;87.40;34436.38;5091899;28;20416;-68
2023/12/07 05:30:46;;;;;;;40.70;18.63;;;;;;;-146.27;87.51;34442.31;5090074;28;20151;-67
2023/12/07 05:33:12;;;;;;;34.92;18.73;;;;;;;-146.27;87.42;34394.69;5090410;28;20078;-69
2023/12/07 05:35:37;;;;;;;39.35;18.30;;;;;;;-146.27;87.38;34376.84;5092649;28;20035;-68
2023/12/07 05:38:03;;;;;;;39.90;19.27;;;;;;;-146.27;87.38;34398.66;5089523;28;20035;-68
2023/12/07 05:40:28;;;;;;;48.40;21.48;;;;;;;-146.27;87.24;34392.72;5094147;28;20028;-69
2023/12/07 05:42:54;;;;;;;59.40;20.92;;;;;;;-146.27;87.32;34420.50;5093003;28;20024;-68
2023/12/07 05:45:19;;;;;;;67.28;21.13;;;;;;;-146.27;87.46;34404.63;5099545;28;20052;-69
2023/12/07 05:47:45;;;;;;;52.88;20.40;;;;;;;-146.27;87.08;34422.47;5103723;28;20042;-68
2023/12/07 05:50:10;;;;;;;55.17;20.13;;;;;;;-146.27;87.24;34394.69;5101161;28;20017;-67
2023/12/07 05:52:35;;;;;;;52.55;19.60;;;;;;;-146.27;87.50;34438.34;5093922;28;20160;-69
2023/12/07 05:55:01;;;;;;;45.45;17.95;;;;;;;-146.27;87.54;34426.44;5095882;28;20419;-67
2023/12/07 05:57:26;;;;;;;42.45;17.23;;;;;;;-146.27;87.29;34452.25;5094156;28;20031;-68
2023/12/07 05:59:51;;;;;;;66.05;20.05;;;;;;;-146.27;87.50;34442.31;5096522;28;20024;-68
2023/12/07 06:02:17;;;;;;;39.30;17.80;;;;;;;-146.27;87.19;34434.38;5103887;28;20020;-67
2023/12/07 06:04:45;;;;;;;93.00;19.33;;;;;;;-146.27;87.06;34450.25;5092468;28;20423;-69
2023/12/07 06:07:12;;;;;;;51.53;16.88;;;;;;;-146.27;87.30;34458.22;5100731;28;20023;-69
2023/12/07 06:09:37;;;;;;;36.88;16.58;;;;;;;-146.27;87.48;34462.19;5095838;28;20031;-68
2023/12/07 06:12:04;;;;;;;38.05;16.73;;;;;;;-146.27;87.18;34438.34;5101131;28;20460;-69
2023/12/07 06:14:29;;;;;;;40.17;17.90;;;;;;;-146.27;87.06;34438.34;5099578;28;20050;-69
2023/12/07 06:16:55;;;;;;;33.22;16.67;;;;;;;-146.27;87.01;34458.22;5092653;28;20028;-68
2023/12/07 06:19:21;;;;;;;58.10;18.48;;;;;;;-146.27;86.75;34464.16;5091448;28;20023;-68
2023/12/07 06:21:46;;;;;;;38.65;16.35;;;;;;;-146.27;86.75;34416.53;5102699;28;20718;-68
2023/12/07 06:24:13;;;;;;;41.78;15.40;;;;;;;-146.27;86.83;34448.28;5096903;28;20119;-68
2023/12/07 06:26:38;;;;;;;36.38;16.40;;;;;;;-146.27;87.38;34456.22;5108308;28;20034;-68
2023/12/07 06:29:04;;;;;;;46.70;16.75;;;;;;;-146.27;87.35;34470.13;5100471;28;20044;-67
2023/12/07 06:31:29;;;;;;;34.65;15.43;;;;;;;-146.27;87.72;34446.28;5094652;28;20035;-67
2023/12/07 06:33:54;;;;;;;34.53;15.30;;;;;;;-146.27;87.51;34466.16;5092175;28;20032;-67
2023/12/07 06:36:25;;;;;;;62.85;15.93;;;;;;;-146.27;87.52;34482.03;5091687;28;20384;-68
2023/12/07 06:38:51;;;;;;;38.35;12.55;;;;;;;-146.27;87.43;34438.34;5091027;28;20487;-67
2023/12/07 06:41:16;;;;;;;27.90;12.60;;;;;;;-146.27;87.25;34428.44;5103799;28;20027;-68
2023/12/07 06:43:43;;;;;;;26.52;12.43;;;;;;;-146.27;87.05;34446.28;5107599;28;20024;-68
2023/12/07 06:46:10;;;;;;;32.35;13.20;;;;;;;-146.27;86.95;34474.09;5108451;28;20392;-67
2023/12/07 06:48:35;;;;;;;35.90;14.13;;;;;;;-146.27;87.21;34428.44;5095751;28;20035;-68
2023/12/07 06:51:01;;;;;;;35.63;13.90;;;;;;;-146.27;87.19;34482.03;5098343;28;20055;-68
2023/12/07 06:53:26;;;;;;;47.65;15.45;;;;;;;-146.27;87.13;34487.97;5096790;28;20024;-68
2023/12/07 06:55:51;;;;;;;35.75;14.30;;;;;;;-146.27;87.20;34446.28;5077526;28;20146;-68
2023/12/07 06:58:17;;;;;;;31.58;13.68;;;;;;;-146.27;87.32;34470.13;5097807;28;20058;-68
2023/12/07 07:00:42;;;;;;;37.72;14.98;;;;;;;-146.27;87.60;34470.13;5107114;28;20042;-68
2023/12/07 07:03:07;;;;;;;35.72;13.88;;;;;;;-146.27;87.35;34452.25;5099004;28;20023;-69
2023/12/07 07:05:33;;;;;;;44.35;13.95;;;;;;;-146.27;87.38;34474.09;5092976;28;20518;-69
2023/12/07 07:07:58;;;;;;;47.53;14.90;;;;;;;-146.27;87.35;34412.56;5102847;28;20024;-68
2023/12/07 07:10:24;;;;;;;50.03;14.05;;;;;;;-146.27;87.53;34452.25;5111796;28;20027;-67
2023/12/07 07:12:49;;;;;;;39.28;14.77;;;;;;;-146.27;87.37;34487.97;5093818;28;20110;-67
2023/12/07 07:15:15;;;;;;;47.08;16.08;;;;;;;-146.27;87.56;34462.19;5108194;28;20421;-67
2023/12/07 07:17:40;;;;;;;48.53;13.90;;;;;;;-146.27;87.84;34482.03;5095904;28;20110;-67
2023/12/07 07:20:07;;;;;;;49.70;12.70;;;;;;;-146.27;87.73;34446.28;5077512;28;20034;-67
2023/12/07 07:22:32;;;;;;;33.20;12.57;;;;;;;-146.27;87.44;34442.31;5095640;28;20630;-67
2023/12/07 07:24:57;;;;;;;33.33;12.80;;;;;;;-146.27;87.43;34458.22;5099162;28;20031;-68
2023/12/07 07:27:23;;;;;;;41.75;12.95;;;;;;;-146.27;87.21;34462.19;5095273;28;20032;-68
2023/12/07 07:29:48;;;;;;;34.72;13.30;;;;;;;-146.27;87.63;34446.28;5097111;28;20047;-69
2023/12/07 07:32:13;;;;;;;39.10;12.25;;;;;;;-146.27;87.75;34450.25;5104035;28;20602;-68
2023/12/07 07:34:39;;;;;;;33.58;10.90;;;;;;;-146.27;87.61;34470.13;5097979;28;20478;-69
2023/12/07 07:37:06;;;;;;;35.00;11.60;;;;;;;-146.27;87.86;34430.41;5100237;28;20028;-68
2023/12/07 07:39:32;;;;;;;25.88;10.02;;;;;;;-146.27;87.96;34462.19;5091755;28;20028;-68
2023/12/07 07:41:57;;;;;;;53.40;11.15;;;;;;;-146.27;88.10;34372.88;5094818;28;20016;-68
2023/12/07 07:44:23;;;;;;;43.28;10.40;;;;;;;-146.27;88.26;34442.31;5097997;28;20074;-68
2023/12/07 07:46:48;;;;;;;55.67;11.73;;;;;;;-146.27;88.27;34454.22;5098299;28;20020;-67
2023/12/07 07:49:13;;;;;;;28.65;11.55;;;;;;;-146.27;87.81;34420.50;5090899;28;20024;-69
2023/12/07 07:51:39;;;;;;;30.10;10.88;;;;;;;-146.27;88.27;34442.31;5089278;28;20032;-68
2023/12/07 07:54:04;;;;;;;40.63;11.60;;;;;;;-146.27;88.16;34432.41;5091353;28;20035;-67
2023/12/07 07:56:30;;;;;;;43.65;10.25;;;;;;;-146.27;88.18;34456.22;5111056;28;20686;-67
2023/12/07 07:58:55;;;;;;;77.72;11.82;;;;;;;-146.27;88.64;34430.41;5092943;28;20120;-68
2023/12/07 08:01:20;;;;;;;34.75;11.10;;;;;;;-146.27;88.65;34442.31;5094609;28;20060;-68
2023/12/07 08:03:46;;;;;;;43.17;11.57;;;;;;;-146.27;88.42;34416.53;5100213;28;20019;-68
2023/12/07 08:06:11;;;;;;;35.60;11.57;;;;;;;-146.27;88.39;34446.28;5110661;28;20062;-68
2023/12/07 08:08:36;;;;;;;44.42;11.80;;;;;;;-146.27;88.25;34430.41;5097179;28;20031;-69
2023/12/07 08:11:02;;;;;;;42.72;12.40;;;;;;;-146.27;88.19;34428.44;5099411;27;20039;-68
2023/12/07 08:13:27;;;;;;;56.53;12.82;;;;;;;-146.27;87.86;34398.66;5093582;28;20035;-68
2023/12/07 08:15:53;;;;;;;44.53;12.23;;;;;;;-146.27;87.73;34438.34;5097638;28;20406;-69
2023/12/07 08:18:19;;;;;;;62.05;12.27;;;;;;;-146.27;88.29;34432.41;5099767;28;20022;-68
2023/12/07 08:20:44;;;;;;;51.25;12.07;;;;;;;-146.27;88.24;34430.41;5089120;28;20072;-68
2023/12/07 08:23:10;;;;;;;44.30;11.50;;;;;;;-146.27;87.89;34432.41;5098536;28;20108;-68
2023/12/07 08:25:38;;;;;;;43.38;11.30;;;;;;;-146.27;88.36;34428.44;5094427;28;20472;-68
2023/12/07 08:28:03;;;;;;;23.23;9.55;;;;;;;-146.27;88.43;34436.38;5101866;28;20152;-67
2023/12/07 08:30:28;;;;;;;46.97;11.35;;;;;;;-146.27;88.11;34440.34;5091399;28;20028;-68
2023/12/07 08:32:54;;;;;;;38.72;11.55;;;;;;;-146.27;88.08;34384.78;5092310;28;20027;-67
2023/12/07 08:35:19;;;;;;;47.53;12.38;;;;;;;-146.27;88.24;34462.19;5105324;28;20376;-70
2023/12/07 08:37:44;;;;;;;48.47;11.70;;;;;;;-146.27;88.10;34374.84;5096345;28;20028;-68
2023/12/07 08:40:11;;;;;;;42.88;10.23;;;;;;;-146.27;88.33;34390.72;5101487;28;20020;-68
2023/12/07 08:42:36;;;;;;;38.63;10.07;;;;;;;-146.27;88.11;34432.41;5091759;28;20085;-67
2023/12/07 08:45:02;;;;;;;75.28;12.98;;;;;;;-146.27;88.24;34422.47;5102120;28;20020;-67
2023/12/07 08:47:30;;;;;;;52.78;10.93;;;;;;;-146.27;88.32;34446.28;5107302;28;20035;-67
2023/12/07 08:49:55;;;;;;;58.00;11.20;;;;;;;-146.27;88.38;34428.44;5093032;28;20020;-69
2023/12/07 08:52:20;;;;;;;64.43;10.18;;;;;;;-146.27;88.67;34406.59;5101422;28;20038;-68
2023/12/07 08:54:46;;;;;;;39.15;10.15;;;;;;;-146.27;88.54;34408.59;5103569;28;20020;-68
2023/12/07 08:57:12;;;;;;;72.22;12.00;;;;;;;-146.27;88.64;34394.69;5099219;28;20011;-70
2023/12/07 08:59:37;;;;;;;38.03;10.88;;;;;;;-146.27;88.56;34376.84;5111232;28;20039;-69
2023/12/07 09:02:03;;;;;;;45.40;10.68;;;;;;;-146.27;88.45;34416.53;5103600;27;20027;-69
2023/12/07 09:04:28;;;;;;;46.38;11.60;;;;;;;-146.27;88.38;34372.88;5109963;27;20024;-68
2023/12/07 09:06:54;;;;;;;53.83;12.77;;;;;;;-146.27;88.16;34390.72;5085054;28;20102;-69
2023/12/07 09:09:19;;;;;;;34.65;10.90;;;;;;;-146.27;88.58;34394.69;5102533;28;20028;-70
2023/12/07 09:11:45;;;;;;;43.13;12.15;;;;;;;-146.27;88.50;34362.94;5105594;27;20422;-68
2023/12/07 09:14:11;;;;;;;45.20;11.85;;;;;;;-146.27;88.16;34366.91;5100475;28;20024;-68
2023/12/07 09:16:45;;;;;;;41.08;13.52;;;;;;;-146.27;88.73;34370.88;5096471;28;20078;-68
2023/12/07 09:19:12;;;;;;;42.38;11.27;;;;;;;-146.27;88.51;34368.91;5106782;28;20453;-68
2023/12/07 09:21:38;;;;;;;49.33;13.13;;;;;;;-146.27;88.73;34358.97;5105093;28;20048;-68
2023/12/07 09:24:05;;;;;;;47.65;13.18;;;;;;;-146.27;88.47;34355.00;5084817;28;20024;-68
2023/12/07 09:26:31;;;;;;;58.72;13.70;;;;;;;-146.27;88.94;34358.97;5100338;28;20016;-68
2023/12/07 09:28:56;;;;;;;63.05;14.15;;;;;;;-146.27;88.87;34343.09;5100561;28;20050;-68
2023/12/07 09:31:22;;;;;;;48.55;14.18;;;;;;;-146.27;88.64;34343.09;5105378;28;20030;-68
2023/12/07 09:33:47;;;;;;;51.13;13.77;;;;;;;-146.27;88.99;34335.16;5100639;28;20063;-69
2023/12/07 09:36:18;;;;;;;46.75;15.05;;;;;;;-146.27;89.56;34355.00;5103089;28;20031;-66
2023/12/07 09:38:43;;;;;;;51.40;14.10;;;;;;;-146.27;89.34;34311.34;5108929;27;20484;-69
2023/12/07 09:41:09;;;;;;;52.70;14.15;;;;;;;-146.27;89.10;34323.25;5083156;28;20062;-68
2023/12/07 09:43:35;;;;;;;60.42;15.55;;;;;;;-146.27;88.69;34275.63;5100183;27;20440;-67
2023/12/07 09:46:00;;;;;;;54.25;15.35;;;;;;;-146.27;88.79;34315.31;5099093;27;20043;-69
2023/12/07 09:48:26;;;;;;;51.40;15.15;;;;;;;-146.27;88.54;34301.41;5081628;28;20036;-68
2023/12/07 09:50:55;;;;;;;79.45;17.23;;;;;;;-146.27;88.93;34263.72;5105353;28;20011;-69
2023/12/07 09:53:21;;;;;;;68.80;17.27;;;;;;;-146.27;89.53;34241.88;5104871;28;20393;-70
2023/12/07 09:55:47;;;;;;;57.95;17.17;;;;;;;-146.27;89.29;34333.16;5063654;28;20067;-68
2023/12/07 09:58:13;;;;;;;62.47;16.58;;;;;;;-146.27;89.56;34315.31;5106168;28;20271;-69
2023/12/07 10:00:38;;;;;;;55.10;17.50;;;;;;;-146.27;89.46;34281.56;5110893;28;20028;-69
2023/12/07 10:03:07;;;;;;;63.22;16.85;;;;;;;-146.27;89.07;34311.34;5102835;28;20028;-69
2023/12/07 10:05:34;;;;;;;69.38;18.58;;;;;;;-146.27;88.98;34275.63;5085179;28;20139;-69
2023/12/07 10:07:59;;;;;;;57.30;17.65;;;;;;;-146.27;89.18;34281.56;5101019;28;20020;-69
2023/12/07 10:10:25;;;;;;;61.05;17.73;;;;;;;-146.27;89.30;34283.56;5070916;28;20122;-69
2023/12/07 10:12:58;;;;;;;72.70;17.88;;;;;;;-146.27;89.48;34287.53;5103256;28;20020;-71
2023/12/07 10:15:28;;;;;;;57.93;17.20;;;;;;;-146.27;89.41;34247.84;5097161;28;20024;-69
2023/12/07 10:17:56;;;;;;;62.78;19.38;;;;;;;-146.27;89.23;34237.91;5101901;28;20472;-69
2023/12/07 10:20:26;;;;;;;58.47;18.02;;;;;;;-146.27;89.42;34299.44;5078863;28;20357;-69
2023/12/07 10:23:07;;;;;;;58.83;17.77;;;;;;;-146.27;89.37;34212.09;5091427;28;20020;-68
2023/12/07 10:25:35;;;;;;;55.15;17.63;;;;;;;-146.27;89.17;34267.69;5103543;28;20019;-69
2023/12/07 10:28:03;;;;;;;52.47;16.75;;;;;;;-146.27;89.00;34228.00;5079279;28;20134;-69
2023/12/07 10:30:29;;;;;;;53.42;17.85;;;;;;;-146.27;89.02;34220.06;5101473;28;20046;-69
2023/12/07 10:32:54;;;;;;;58.20;19.45;;;;;;;-146.27;88.80;34229.97;5103264;27;20407;-69
2023/12/07 10:35:20;;;;;;;56.00;17.33;;;;;;;-146.27;89.08;34255.78;5101308;27;20032;-69
2023/12/07 10:37:46;;;;;;;51.80;16.55;;;;;;;-146.27;89.09;34249.81;5100404;28;20028;-68
2023/12/07 10:40:12;;;;;;;50.90;18.45;;;;;;;-146.27;88.92;34235.94;5100413;27;20379;-68
2023/12/07 10:42:41;;;;;;;45.40;17.17;;;;;;;-146.27;89.01;34231.97;5095529;28;20020;-69
2023/12/07 10:45:07;;;;;;;51.20;16.75;;;;;;;-146.27;88.72;34231.97;5098848;28;20034;-68
2023/12/07 10:47:36;;;;;;;44.42;17.70;;;;;;;-146.27;88.43;34235.94;5100046;28;20032;-69
2023/12/07 10:50:06;;;;;;;55.42;18.38;;;;;;;-146.27;89.10;34226.00;5102321;28;20034;-69
2023/12/07 10:52:33;;;;;;;53.85;16.63;;;;;;;-146.27;88.74;34224.03;5103238;28;20027;-68
2023/12/07 10:55:04;;;;;;;53.38;17.35;;;;;;;-146.27;88.86;34194.25;5102776;28;20064;-68
2023/12/07 10:57:32;;;;;;;47.33;17.17;;;;;;;-146.27;89.09;34210.13;5078792;28;20032;-68
2023/12/07 11:00:00;;;;;;;50.15;16.55;;;;;;;-146.27;88.95;34188.28;5099629;28;20019;-68